OCN2401 LFPG-EDDM
Flight info
| Callsign | OCN2401 |
|---|---|
| Flight time | N/A |
| Altitude | 33000 |
| Route | LANVI DCT LUPEN/N0440F270 T107 ROKIL ROKIL1A |
| Aircraft | A320/M-SDE3FGHIRWY/LB1 |
Departure
| Time | 2026-04-30 22:41 |
|---|---|
| Airport | Charles de Gaulle International Airport (LFPG) |
Arrival
| Time | N/A |
|---|---|
| Airport | Munich Airport (EDDM) |
| Time | Latitude | Longitude | Altitude | Speed | Heading |
|---|---|---|---|---|---|
| 2026-04-30 22:12 | 49.01252 | 2.53882 | 364 ft | 0 kts | 90° |
| 2026-04-30 22:29 | 49.01252 | 2.53877 | 363 ft | 3 kts | 90° |
| 2026-04-30 22:30 | 49.01249 | 2.53727 | 359 ft | 4 kts | 95° |
| 2026-04-30 22:31 | 49.01267 | 2.53673 | 357 ft | 0 kts | 155° |
| 2026-04-30 22:33 | 49.01254 | 2.53682 | 362 ft | 0 kts | 154° |
| 2026-04-30 22:33 | 49.01253 | 2.53682 | 362 ft | 1 kts | 154° |
| 2026-04-30 22:34 | 49.01186 | 2.54080 | 355 ft | 17 kts | 87° |
| 2026-04-30 22:35 | 49.01199 | 2.54351 | 355 ft | 8 kts | 85° |
| 2026-04-30 22:36 | 49.01205 | 2.54998 | 359 ft | 17 kts | 149° |
| 2026-04-30 22:36 | 49.01082 | 2.55053 | 359 ft | 20 kts | 165° |
| 2026-04-30 22:37 | 49.00612 | 2.55259 | 359 ft | 25 kts | 162° |
| 2026-04-30 22:37 | 49.00441 | 2.55331 | 363 ft | 26 kts | 164° |
| 2026-04-30 22:37 | 49.00119 | 2.55477 | 358 ft | 23 kts | 162° |
| 2026-04-30 22:38 | 48.99959 | 2.55538 | 355 ft | 0 kts | 163° |
| 2026-04-30 22:38 | 48.99933 | 2.55546 | 358 ft | 10 kts | 179° |
| 2026-04-30 22:39 | 48.99877 | 2.55431 | 362 ft | 13 kts | 219° |
| 2026-04-30 22:39 | 48.99623 | 2.55509 | 356 ft | 14 kts | 139° |
| 2026-04-30 22:40 | 48.99603 | 2.55887 | 354 ft | 61 kts | 86° |
| 2026-04-30 22:41 | 48.99780 | 2.59511 | 990 ft | 156 kts | 86° |
| 2026-04-30 22:41 | 48.99956 | 2.62965 | 2254 ft | 181 kts | 89° |
| 2026-04-30 22:42 | 49.00498 | 2.73168 | 5076 ft | 249 kts | 88° |
| 2026-04-30 22:43 | 49.00690 | 2.78529 | 6875 ft | 260 kts | 96° |
| 2026-04-30 22:43 | 49.00174 | 2.84041 | 8727 ft | 264 kts | 101° |
| 2026-04-30 22:44 | 48.99530 | 2.89654 | 10391 ft | 277 kts | 101° |
| 2026-04-30 22:45 | 48.98201 | 3.02916 | 12323 ft | 339 kts | 98° |
| 2026-04-30 22:45 | 48.97636 | 3.10105 | 13964 ft | 344 kts | 97° |
| 2026-04-30 22:46 | 48.97048 | 3.17443 | 15268 ft | 353 kts | 98° |
| 2026-04-30 22:47 | 48.95764 | 3.32514 | 17923 ft | 365 kts | 98° |
| 2026-04-30 22:47 | 48.95097 | 3.40186 | 19112 ft | 372 kts | 98° |
| 2026-04-30 22:48 | 48.94416 | 3.48019 | 20279 ft | 375 kts | 98° |
| 2026-04-30 22:49 | 48.93450 | 3.59974 | 21896 ft | 383 kts | 95° |
| 2026-04-30 22:49 | 48.92861 | 3.72174 | 23536 ft | 388 kts | 94° |
| 2026-04-30 22:50 | 48.92100 | 3.87304 | 25120 ft | 396 kts | 95° |
| 2026-04-30 22:51 | 48.91576 | 3.96609 | 25986 ft | 401 kts | 95° |
| 2026-04-30 22:51 | 48.91094 | 4.05099 | 26774 ft | 405 kts | 95° |
| 2026-04-30 22:52 | 48.90854 | 4.09368 | 27157 ft | 407 kts | 95° |
| 2026-04-30 22:52 | 48.90363 | 4.17932 | 27898 ft | 411 kts | 97° |
| 2026-04-30 22:53 | 48.88753 | 4.26328 | 28581 ft | 416 kts | 115° |
| 2026-04-30 22:53 | 48.85953 | 4.34019 | 29259 ft | 420 kts | 118° |
| 2026-04-30 22:53 | 48.84530 | 4.37907 | 29587 ft | 422 kts | 117° |
| 2026-04-30 22:54 | 48.82555 | 4.46222 | 30173 ft | 425 kts | 99° |
| 2026-04-30 22:55 | 48.81145 | 4.59517 | 31202 ft | 424 kts | 99° |
| 2026-04-30 22:55 | 48.80224 | 4.68355 | 31902 ft | 424 kts | 99° |
| 2026-04-30 22:56 | 48.79287 | 4.77176 | 32607 ft | 423 kts | 99° |
| 2026-04-30 22:56 | 48.77866 | 4.90382 | 33221 ft | 422 kts | 99° |
| 2026-04-30 22:57 | 48.76911 | 4.99144 | 33224 ft | 421 kts | 99° |
| 2026-04-30 22:58 | 48.74987 | 5.16626 | 33229 ft | 420 kts | 99° |
| 2026-04-30 22:59 | 48.72046 | 5.42817 | 33232 ft | 420 kts | 99° |